createdAt,value
2023-04-17T00:01:06.804Z,4.97
2023-04-17T00:03:33.645Z,5.70
2023-04-17T00:06:01.728Z,6.50
2023-04-17T00:08:28.393Z,5.97
2023-04-17T00:11:04.564Z,6.63
2023-04-17T00:13:33.552Z,6.60
2023-04-17T00:16:00.252Z,7.47
2023-04-17T00:18:27.003Z,6.57
2023-04-17T00:20:53.738Z,7.70
2023-04-17T00:23:21.703Z,8.17
2023-04-17T00:25:48.498Z,7.87
2023-04-17T00:28:15.189Z,6.70
2023-04-17T00:30:41.818Z,7.50
2023-04-17T00:33:08.621Z,7.70
2023-04-17T00:35:35.283Z,6.67
2023-04-17T00:38:01.987Z,5.80
2023-04-17T00:40:30.032Z,6.03
2023-04-17T00:43:00.351Z,7.43
2023-04-17T00:45:27.137Z,6.17
2023-04-17T00:47:54.555Z,7.13
2023-04-17T00:50:22.303Z,5.73
2023-04-17T00:52:49.673Z,6.20
2023-04-17T00:55:16.409Z,6.10
2023-04-17T00:57:44.918Z,7.17
2023-04-17T01:00:12.775Z,6.77
2023-04-17T01:02:40.454Z,8.17
2023-04-17T01:05:07.782Z,8.30
2023-04-17T01:07:34.740Z,7.77
2023-04-17T01:10:01.565Z,8.47
2023-04-17T01:12:28.199Z,7.80
2023-04-17T01:14:57.069Z,8.63
2023-04-17T01:17:24.504Z,8.00
2023-04-17T01:19:51.561Z,8.07
2023-04-17T01:22:18.877Z,7.70
2023-04-17T01:24:47.246Z,8.10
2023-04-17T01:27:14.454Z,8.70
2023-04-17T01:29:41.888Z,8.40
2023-04-17T01:32:08.709Z,8.20
2023-04-17T01:34:37.278Z,9.73
2023-04-17T01:37:04.519Z,8.40
2023-04-17T01:39:31.297Z,8.30
2023-04-17T01:41:59.363Z,8.33
2023-04-17T01:44:26.034Z,8.90
2023-04-17T01:46:52.786Z,8.23
2023-04-17T01:49:20.505Z,9.20
2023-04-17T01:51:47.151Z,9.23
2023-04-17T01:54:13.911Z,8.07
2023-04-17T01:56:40.622Z,9.20
2023-04-17T01:59:08.833Z,8.90
2023-04-17T02:01:35.591Z,8.70
2023-04-17T02:04:02.418Z,8.10
2023-04-17T02:06:29.426Z,8.80
2023-04-17T02:08:56.114Z,9.37
2023-04-17T02:11:22.803Z,8.60
2023-04-17T02:13:49.548Z,9.03
2023-04-17T02:16:17.629Z,9.10
2023-04-17T02:18:44.390Z,9.60
2023-04-17T02:21:11.226Z,10.23
2023-04-17T02:23:37.941Z,10.23
2023-04-17T02:26:05.402Z,9.43
2023-04-17T02:28:32.123Z,8.80
2023-04-17T02:30:59.197Z,9.87
2023-04-17T02:33:27.329Z,9.57
2023-04-17T02:35:54.065Z,11.13
2023-04-17T02:38:20.707Z,9.97
2023-04-17T02:40:47.376Z,9.37
2023-04-17T02:43:14.055Z,8.80
2023-04-17T02:45:40.776Z,8.90
2023-04-17T02:48:07.464Z,9.60
2023-04-17T02:50:35.579Z,9.53
2023-04-17T02:53:02.241Z,10.27
2023-04-17T02:55:28.920Z,10.07
2023-04-17T02:57:55.637Z,9.63
2023-04-17T03:00:22.656Z,10.00
2023-04-17T03:02:49.750Z,9.47
2023-04-17T03:05:17.632Z,10.43
2023-04-17T03:07:45.779Z,8.07
2023-04-17T03:10:12.488Z,9.47
2023-04-17T03:12:39.220Z,9.23
2023-04-17T03:15:08.756Z,9.93
2023-04-17T03:17:35.693Z,9.83
2023-04-17T03:20:02.476Z,9.17
2023-04-17T03:22:29.208Z,9.10
2023-04-17T03:24:57.180Z,9.40
2023-04-17T03:27:23.872Z,9.20
2023-04-17T03:29:50.689Z,10.20
2023-04-17T03:32:17.522Z,10.13
2023-04-17T03:34:44.652Z,8.77
2023-04-17T03:37:11.318Z,9.03
2023-04-17T03:39:38.121Z,9.30
2023-04-17T03:42:06.827Z,10.97
2023-04-17T03:44:33.540Z,10.70
2023-04-17T03:47:00.196Z,10.90
2023-04-17T03:49:26.862Z,11.50
2023-04-17T03:51:53.548Z,11.23
2023-04-17T03:54:20.198Z,9.60
2023-04-17T03:56:46.868Z,11.47
2023-04-17T03:59:14.921Z,10.90
2023-04-17T04:01:41.594Z,11.00
2023-04-17T04:04:08.500Z,9.27
2023-04-17T04:06:35.417Z,9.50
2023-04-17T04:09:02.076Z,10.77
2023-04-17T04:11:28.719Z,10.50
2023-04-17T04:13:55.360Z,10.47
2023-04-17T04:16:23.507Z,11.10
2023-04-17T04:18:50.271Z,10.73
2023-04-17T04:21:16.926Z,12.10
2023-04-17T04:23:43.630Z,10.63
2023-04-17T04:26:10.578Z,10.20
2023-04-17T04:28:37.424Z,11.67
2023-04-17T04:31:04.299Z,10.70
2023-04-17T04:33:32.329Z,11.63
2023-04-17T04:35:59.008Z,11.10
2023-04-17T04:38:25.622Z,10.70
2023-04-17T04:40:52.610Z,12.40
2023-04-17T04:43:22.163Z,10.23
2023-04-17T04:45:49.165Z,10.83
2023-04-17T04:48:15.848Z,12.20
2023-04-17T04:50:44.240Z,12.23
2023-04-17T04:53:10.904Z,10.00
2023-04-17T04:55:37.656Z,11.50
2023-04-17T04:58:04.376Z,12.33
2023-04-17T05:00:31.785Z,10.53
2023-04-17T05:02:58.636Z,11.10
2023-04-17T05:05:25.681Z,11.30
2023-04-17T05:07:53.851Z,10.30
2023-04-17T05:10:20.959Z,9.90
2023-04-17T05:12:48.237Z,11.97
2023-04-17T05:15:14.918Z,11.07
2023-04-17T05:17:41.739Z,11.20
2023-04-17T05:20:09.525Z,13.40
2023-04-17T05:22:36.331Z,11.27
2023-04-17T05:25:07.165Z,10.60
2023-04-17T05:27:34.018Z,10.70
2023-04-17T05:30:00.701Z,11.37
2023-04-17T05:32:27.480Z,11.40
2023-04-17T05:34:54.286Z,12.07
2023-04-17T05:37:20.949Z,11.37
2023-04-17T05:39:47.587Z,11.10
2023-04-17T05:42:15.570Z,11.30
2023-04-17T05:44:42.230Z,10.80
2023-04-17T05:47:08.906Z,12.20
2023-04-17T05:49:35.570Z,11.70
2023-04-17T05:52:02.319Z,12.27
2023-04-17T05:54:28.972Z,12.70
2023-04-17T05:56:55.724Z,13.00
2023-04-17T05:59:23.769Z,12.83
2023-04-17T06:01:50.666Z,12.13
2023-04-17T06:04:18.182Z,10.43
2023-04-17T06:06:45.491Z,12.77
2023-04-17T06:09:12.505Z,11.77
2023-04-17T06:11:39.420Z,12.20
2023-04-17T06:14:06.154Z,14.70
2023-04-17T06:16:34.319Z,12.63
2023-04-17T06:19:01.104Z,12.10
2023-04-17T06:21:27.868Z,11.93
2023-04-17T06:23:54.614Z,12.87
2023-04-17T06:26:21.443Z,12.93
2023-04-17T06:28:48.132Z,13.13
2023-04-17T06:31:14.952Z,13.23
2023-04-17T06:33:42.938Z,12.80
2023-04-17T06:36:09.787Z,12.70
2023-04-17T06:38:36.642Z,12.53
2023-04-17T06:41:03.441Z,13.63
2023-04-17T06:43:30.121Z,13.07
2023-04-17T06:45:56.849Z,12.60
2023-04-17T06:48:26.416Z,13.90
2023-04-17T06:50:54.396Z,13.50
2023-04-17T06:53:21.109Z,13.57
2023-04-17T06:55:47.769Z,13.97
2023-04-17T06:58:14.644Z,9.33
2023-04-17T07:00:41.321Z,12.37
2023-04-17T07:03:08.314Z,11.37
2023-04-17T07:05:35.130Z,14.60
2023-04-17T07:08:03.242Z,14.40
2023-04-17T07:10:29.966Z,11.10
2023-04-17T07:12:57.069Z,12.90
2023-04-17T07:15:23.910Z,11.77
2023-04-17T07:17:50.705Z,10.73
2023-04-17T07:20:17.394Z,10.10
2023-04-17T07:22:44.134Z,10.80
2023-04-17T07:25:12.140Z,10.47
2023-04-17T07:27:38.844Z,11.70
2023-04-17T07:30:07.515Z,11.90
2023-04-17T07:32:34.317Z,11.57
2023-04-17T07:35:01.066Z,11.90
2023-04-17T07:37:27.753Z,11.50
2023-04-17T07:39:54.446Z,12.20
2023-04-17T07:42:22.411Z,11.57
2023-04-17T07:44:49.218Z,8.67
2023-04-17T07:47:15.991Z,12.10
2023-04-17T07:49:42.804Z,10.30
2023-04-17T07:52:09.506Z,9.00
2023-04-17T07:54:36.280Z,10.07
2023-04-17T07:57:03.058Z,9.83
2023-04-17T07:59:31.198Z,10.10
2023-04-17T08:01:58.210Z,10.33
2023-04-17T08:04:25.870Z,7.70
2023-04-17T08:06:52.926Z,6.57
2023-04-17T08:09:20.531Z,9.37
2023-04-17T08:11:56.335Z,9.53
2023-04-17T08:14:24.609Z,9.57
2023-04-17T08:16:52.832Z,9.53
2023-04-17T08:19:19.571Z,10.10
2023-04-17T08:21:48.015Z,10.47
2023-04-17T08:24:15.862Z,10.40
2023-04-17T08:26:43.631Z,10.80
2023-04-17T08:29:10.421Z,11.30
2023-04-17T08:31:37.262Z,11.20
2023-04-17T08:34:13.828Z,9.77
2023-04-17T08:36:41.374Z,12.60
2023-04-17T08:39:08.101Z,12.70
2023-04-17T08:41:42.729Z,10.03
2023-04-17T08:44:09.474Z,11.10
2023-04-17T08:46:36.886Z,12.30
2023-04-17T08:49:05.015Z,12.23
2023-04-17T08:51:31.748Z,12.50
2023-04-17T08:53:58.420Z,10.20
2023-04-17T08:56:25.156Z,10.57
2023-04-17T08:58:51.830Z,12.53
2023-04-17T09:01:18.544Z,11.17
2023-04-17T09:03:47.899Z,13.37
2023-04-17T09:06:16.160Z,10.40
2023-04-17T09:08:57.336Z,9.30
2023-04-17T09:11:24.396Z,10.43
2023-04-17T09:13:51.226Z,9.77
2023-04-17T09:16:18.129Z,10.53
2023-04-17T09:18:44.834Z,9.73
2023-04-17T09:21:12.029Z,8.40
2023-04-17T09:23:51.708Z,9.90
2023-04-17T09:26:20.104Z,8.40
2023-04-17T09:29:04.596Z,8.40
2023-04-17T09:31:32.427Z,8.00
2023-04-17T09:34:00.711Z,8.10
2023-04-17T09:36:32.095Z,9.17
2023-04-17T09:39:02.755Z,8.93
2023-04-17T09:41:30.931Z,9.00
2023-04-17T09:43:58.875Z,9.57
2023-04-17T09:46:35.846Z,9.30
2023-04-17T09:49:10.108Z,10.77
2023-04-17T09:51:37.042Z,10.60
2023-04-17T09:54:06.116Z,10.03
2023-04-17T09:56:33.792Z,10.87
2023-04-17T09:59:03.887Z,11.33
2023-04-17T10:01:31.051Z,9.50
2023-04-17T10:03:58.340Z,11.60
2023-04-17T10:06:28.291Z,10.33
2023-04-17T10:08:55.159Z,8.77
2023-04-17T10:11:25.352Z,8.50
2023-04-17T10:14:05.030Z,10.10
2023-04-17T10:16:36.134Z,9.87
2023-04-17T10:19:24.752Z,10.20
2023-04-17T10:22:21.276Z,8.67
2023-04-17T10:24:49.442Z,9.47
2023-04-17T10:27:44.530Z,11.33
2023-04-17T10:30:12.385Z,9.30
2023-04-17T10:32:42.042Z,9.60
2023-04-17T10:35:36.081Z,9.90
2023-04-17T10:38:05.037Z,10.27
2023-04-17T10:40:33.561Z,8.90
2023-04-17T10:43:10.497Z,8.67
2023-04-17T10:46:09.288Z,8.07
2023-04-17T10:48:38.055Z,7.73
2023-04-17T10:51:40.248Z,6.73
2023-04-17T10:54:06.970Z,3.03
2023-04-17T10:56:37.338Z,7.17
2023-04-17T10:59:07.394Z,7.90
2023-04-17T11:01:38.660Z,9.27
2023-04-17T11:04:06.362Z,9.47
2023-04-17T11:06:36.949Z,9.47
2023-04-17T11:09:07.115Z,11.10
2023-04-17T11:14:09.190Z,9.93
2023-04-17T11:16:37.461Z,11.97
2023-04-17T11:19:05.202Z,9.87
2023-04-17T11:21:32.108Z,10.67
2023-04-17T11:24:02.337Z,9.20
2023-04-17T11:26:28.990Z,9.57
2023-04-17T11:28:55.658Z,10.43
2023-04-17T11:31:25.689Z,10.83
2023-04-17T11:33:52.452Z,10.60
2023-04-17T11:36:19.153Z,10.60
2023-04-17T11:38:49.142Z,11.47
2023-04-17T11:41:15.859Z,13.60
2023-04-17T11:43:42.529Z,10.70
2023-04-17T11:46:09.424Z,8.33
2023-04-17T11:48:37.607Z,9.50
2023-04-17T11:51:05.768Z,8.90
2023-04-17T11:53:34.909Z,8.80
2023-04-17T11:56:11.317Z,8.53
2023-04-17T11:58:45.680Z,8.30
2023-04-17T12:01:12.486Z,8.70
2023-04-17T12:03:41.858Z,8.90
2023-04-17T12:06:10.582Z,8.50
2023-04-17T12:08:45.492Z,7.53
2023-04-17T12:11:17.960Z,7.90
2023-04-17T12:13:46.728Z,7.37
2023-04-17T12:16:13.487Z,8.37
2023-04-17T12:18:41.534Z,7.03
2023-04-17T12:21:08.387Z,7.63
2023-04-17T12:23:35.156Z,7.93
2023-04-17T12:26:01.994Z,8.23
2023-04-17T12:28:29.449Z,8.17
2023-04-17T12:30:56.141Z,8.73
2023-04-17T12:33:22.840Z,6.70
2023-04-17T12:35:50.967Z,8.50
2023-04-17T12:38:17.883Z,7.70
2023-04-17T12:40:47.264Z,7.10
2023-04-17T12:43:14.001Z,7.90
2023-04-17T12:45:42.317Z,7.70
2023-04-17T12:48:09.662Z,7.93
2023-04-17T12:50:36.332Z,9.20
2023-04-17T12:53:04.354Z,8.63
2023-04-17T12:55:31.007Z,9.00
2023-04-17T12:57:59.766Z,9.03
2023-04-17T13:00:26.602Z,10.93
2023-04-17T13:02:53.509Z,9.80
2023-04-17T13:05:20.374Z,8.47
2023-04-17T13:07:47.020Z,8.60
2023-04-17T13:10:15.206Z,10.10
2023-04-17T13:12:41.944Z,9.30
2023-04-17T13:15:09.863Z,9.27
2023-04-17T13:17:36.636Z,10.70
2023-04-17T13:20:03.526Z,11.50
2023-04-17T13:22:30.340Z,9.30
2023-04-17T13:24:57.083Z,10.00
2023-04-17T13:27:25.110Z,9.23
2023-04-17T13:29:52.029Z,10.47
2023-04-17T13:32:18.820Z,9.47
2023-04-17T13:34:45.509Z,9.17
2023-04-17T13:37:12.426Z,8.90
2023-04-17T13:39:39.126Z,10.00
2023-04-17T13:42:06.003Z,10.70
2023-04-17T13:44:34.228Z,7.20
2023-04-17T13:47:00.925Z,8.57
2023-04-17T13:49:27.586Z,9.00
2023-04-17T13:51:54.298Z,9.80
2023-04-17T13:54:20.985Z,3.87
2023-04-17T13:56:47.688Z,8.30
2023-04-17T13:59:14.557Z,8.80
2023-04-17T14:01:42.940Z,8.40
2023-04-17T14:04:09.947Z,10.10
2023-04-17T14:06:36.892Z,8.10
2023-04-17T14:09:03.626Z,7.33
2023-04-17T14:11:30.335Z,10.10
2023-04-17T14:13:56.985Z,9.23
2023-04-17T14:16:23.801Z,9.00
2023-04-17T14:18:52.236Z,10.43
2023-04-17T14:21:19.224Z,4.90
2023-04-17T14:23:46.081Z,8.20
2023-04-17T14:26:12.905Z,6.00
2023-04-17T14:28:39.623Z,6.60
2023-04-17T14:31:06.531Z,9.90
2023-04-17T14:33:33.485Z,7.63
2023-04-17T14:36:01.846Z,9.53
2023-04-17T14:38:29.366Z,7.07
2023-04-17T14:40:56.059Z,8.20
2023-04-17T14:43:22.687Z,7.20
2023-04-17T14:45:49.436Z,5.40
2023-04-17T14:48:16.118Z,7.13
2023-04-17T14:50:42.853Z,9.03
2023-04-17T14:53:10.873Z,8.80
2023-04-17T14:55:37.602Z,8.00
2023-04-17T14:58:04.366Z,8.67
2023-04-17T15:00:31.074Z,7.77
2023-04-17T15:02:57.980Z,8.87
2023-04-17T15:05:24.897Z,8.13
2023-04-17T15:07:51.642Z,8.50
2023-04-17T15:10:19.722Z,9.13
2023-04-17T15:12:46.503Z,7.63
2023-04-17T15:15:13.212Z,8.50
2023-04-17T15:17:39.954Z,9.33
2023-04-17T15:20:07.574Z,8.50
2023-04-17T15:22:34.377Z,6.60
2023-04-17T15:25:01.031Z,7.60
2023-04-17T15:27:29.116Z,7.73
2023-04-17T15:29:55.824Z,8.80
2023-04-17T15:32:22.596Z,7.17
2023-04-17T15:34:49.393Z,8.23
2023-04-17T15:37:16.092Z,7.83
2023-04-17T15:39:42.756Z,5.93
2023-04-17T15:42:09.443Z,7.10
2023-04-17T15:44:37.726Z,8.03
2023-04-17T15:47:04.592Z,7.07
2023-04-17T15:49:31.262Z,6.57
2023-04-17T15:51:57.968Z,8.73
2023-04-17T15:54:24.648Z,9.07
2023-04-17T15:56:51.606Z,9.20
2023-04-17T15:59:18.294Z,8.17
2023-04-17T16:01:46.376Z,6.00
2023-04-17T16:04:13.151Z,7.63
2023-04-17T16:06:39.935Z,8.27
2023-04-17T16:09:06.605Z,8.30
2023-04-17T16:11:33.270Z,8.27
2023-04-17T16:14:00.004Z,8.60
2023-04-17T16:16:26.863Z,7.17
2023-04-17T16:18:54.970Z,5.47
2023-04-17T16:21:21.712Z,9.40
2023-04-17T16:23:48.392Z,8.67
2023-04-17T16:26:15.106Z,8.50
2023-04-17T16:28:41.905Z,6.43
2023-04-17T16:31:08.710Z,7.13
2023-04-17T16:33:35.442Z,6.37
2023-04-17T16:36:03.699Z,6.53
2023-04-17T16:38:30.400Z,6.60
2023-04-17T16:40:57.075Z,6.30
2023-04-17T16:43:23.725Z,6.50
2023-04-17T16:45:50.408Z,6.13
2023-04-17T16:48:17.244Z,2.00
2023-04-17T16:50:44.058Z,7.87
2023-04-17T16:53:12.063Z,3.33
2023-04-17T16:55:38.844Z,3.80
2023-04-17T16:58:05.596Z,6.10
2023-04-17T17:00:32.383Z,6.23
2023-04-17T17:02:59.301Z,6.00
2023-04-17T17:05:26.186Z,7.30
2023-04-17T17:07:52.844Z,6.03
2023-04-17T17:10:20.937Z,5.70
2023-04-17T17:12:47.701Z,5.30
2023-04-17T17:15:14.379Z,5.27
2023-04-17T17:17:41.142Z,4.27
2023-04-17T17:20:09.051Z,3.93
2023-04-17T17:22:35.727Z,4.80
2023-04-17T17:25:02.480Z,3.13
2023-04-17T17:27:30.442Z,5.00
2023-04-17T17:30:00.220Z,4.53
2023-04-17T17:32:27.285Z,3.83
2023-04-17T17:34:54.045Z,4.83
2023-04-17T17:37:20.715Z,4.50
2023-04-17T17:39:47.400Z,4.57
2023-04-17T17:42:14.051Z,4.73
2023-04-17T17:44:42.058Z,4.53
2023-04-17T17:47:08.802Z,4.60
2023-04-17T17:49:35.507Z,5.37
2023-04-17T17:52:02.417Z,4.97
2023-04-17T17:54:29.169Z,2.90
2023-04-17T17:56:55.865Z,5.30
2023-04-17T17:59:22.910Z,4.53
2023-04-17T18:01:51.070Z,4.87
2023-04-17T18:04:18.282Z,5.20
2023-04-17T18:06:45.217Z,5.20
2023-04-17T18:09:11.883Z,4.70
2023-04-17T18:11:38.753Z,4.80
2023-04-17T18:14:05.436Z,5.60
2023-04-17T18:16:32.285Z,4.17
2023-04-17T18:19:00.525Z,5.10
2023-04-17T18:21:27.311Z,5.33
2023-04-17T18:23:54.060Z,4.87
2023-04-17T18:26:20.741Z,4.63
2023-04-17T18:28:47.433Z,4.80
2023-04-17T18:31:14.490Z,3.97
2023-04-17T18:33:41.332Z,4.63
2023-04-17T18:36:09.486Z,3.80
2023-04-17T18:38:36.120Z,4.43
2023-04-17T18:41:02.842Z,4.23
2023-04-17T18:43:29.662Z,4.20
2023-04-17T18:45:56.384Z,4.20
2023-04-17T18:48:24.147Z,4.27
2023-04-17T18:50:50.819Z,4.00
2023-04-17T18:53:18.923Z,4.57
2023-04-17T18:55:45.611Z,5.03
2023-04-17T18:58:12.292Z,4.77
2023-04-17T19:00:39.021Z,3.90
2023-04-17T19:03:05.764Z,3.93
2023-04-17T19:05:32.531Z,3.57
2023-04-17T19:07:59.365Z,4.20
2023-04-17T19:10:27.572Z,4.00
2023-04-17T19:12:54.243Z,3.87
2023-04-17T19:15:21.011Z,4.03
2023-04-17T19:17:47.864Z,3.67
2023-04-17T19:20:14.565Z,3.67
2023-04-17T19:22:41.254Z,3.53
2023-04-17T19:25:09.109Z,3.37
2023-04-17T19:27:37.100Z,4.83
2023-04-17T19:30:07.150Z,4.23
2023-04-17T19:32:34.013Z,3.77
2023-04-17T19:35:00.764Z,4.20
2023-04-17T19:37:27.427Z,4.60
2023-04-17T19:39:56.517Z,3.90
2023-04-17T19:42:23.587Z,4.43
2023-04-17T19:44:51.737Z,3.87
2023-04-17T19:47:18.386Z,4.90
2023-04-17T19:49:45.098Z,4.73
2023-04-17T19:52:12.126Z,5.03
2023-04-17T19:54:38.835Z,4.50
2023-04-17T19:57:05.535Z,5.60
2023-04-17T19:59:32.227Z,4.50
2023-04-17T20:02:00.282Z,4.83
2023-04-17T20:04:28.023Z,6.40
2023-04-17T20:06:54.807Z,5.60
2023-04-17T20:09:21.498Z,4.13
2023-04-17T20:11:48.172Z,6.60
2023-04-17T20:14:14.874Z,4.60
2023-04-17T20:16:41.666Z,4.57
2023-04-17T20:19:09.692Z,3.93
2023-04-17T20:21:36.360Z,4.63
2023-04-17T20:24:03.256Z,4.40
2023-04-17T20:26:30.016Z,4.80
2023-04-17T20:28:56.754Z,4.10
2023-04-17T20:31:23.509Z,3.80
2023-04-17T20:33:50.226Z,4.67
2023-04-17T20:36:18.201Z,3.20
2023-04-17T20:38:45.300Z,4.73
2023-04-17T20:41:11.970Z,4.60
2023-04-17T20:43:38.643Z,3.13
2023-04-17T20:46:05.538Z,5.30
2023-04-17T20:48:32.530Z,5.90
2023-04-17T20:51:01.772Z,6.10
2023-04-17T20:53:29.765Z,4.50
2023-04-17T20:55:58.004Z,4.80
2023-04-17T20:58:24.857Z,5.20
2023-04-17T21:01:00.522Z,6.00
2023-04-17T21:03:29.025Z,6.77
2023-04-17T21:05:55.914Z,5.17
2023-04-17T21:08:22.583Z,5.53
2023-04-17T21:10:50.614Z,5.93
2023-04-17T21:13:17.305Z,6.27
2023-04-17T21:15:44.109Z,5.60
2023-04-17T21:18:10.997Z,4.10
2023-04-17T21:20:38.927Z,6.50
2023-04-17T21:23:05.579Z,6.20
2023-04-17T21:25:32.248Z,6.80
2023-04-17T21:28:00.268Z,6.33
2023-04-17T21:30:27.451Z,5.87
2023-04-17T21:32:54.397Z,6.40
2023-04-17T21:35:21.211Z,5.33
2023-04-17T21:37:47.868Z,6.30
2023-04-17T21:40:14.717Z,7.80
2023-04-17T21:42:41.374Z,7.20
2023-04-17T21:45:10.926Z,6.93
2023-04-17T21:47:37.767Z,6.90
2023-04-17T21:50:51.894Z,6.77
2023-04-17T21:53:18.536Z,4.80
2023-04-17T21:55:45.195Z,7.67
2023-04-17T21:58:12.360Z,7.37
2023-04-17T22:00:39.133Z,6.40
2023-04-17T22:03:05.856Z,7.30
2023-04-17T22:05:32.514Z,7.07
2023-04-17T22:08:00.538Z,6.10
2023-04-17T22:10:28.831Z,5.80
2023-04-17T22:12:55.577Z,7.10
2023-04-17T22:15:22.292Z,7.33
2023-04-17T22:17:49.192Z,7.00
2023-04-17T22:20:15.916Z,7.67
2023-04-17T22:22:42.573Z,7.57
2023-04-17T22:25:10.659Z,6.37
2023-04-17T22:27:37.323Z,6.47
2023-04-17T22:30:05.950Z,6.10
2023-04-17T22:32:33.838Z,7.60
2023-04-17T22:35:00.617Z,7.40
2023-04-17T22:37:27.260Z,7.00
2023-04-17T22:39:53.929Z,7.47
2023-04-17T22:42:22.141Z,6.73
2023-04-17T22:44:48.878Z,5.50
2023-04-17T22:47:15.568Z,7.47
2023-04-17T22:49:42.228Z,6.57
2023-04-17T22:52:09.069Z,7.60
2023-04-17T22:54:36.058Z,8.50
2023-04-17T22:57:02.836Z,7.67
2023-04-17T22:59:30.846Z,8.10
2023-04-17T23:01:57.663Z,6.37
2023-04-17T23:04:24.410Z,7.47
2023-04-17T23:06:51.096Z,7.93
2023-04-17T23:09:17.847Z,8.20
2023-04-17T23:11:44.512Z,7.63
2023-04-17T23:14:11.422Z,8.00
2023-04-17T23:16:39.669Z,7.53
2023-04-17T23:19:06.352Z,7.00
2023-04-17T23:21:33.060Z,8.27
2023-04-17T23:23:59.724Z,6.63
2023-04-17T23:26:26.361Z,8.60
2023-04-17T23:28:53.040Z,7.20
2023-04-17T23:31:19.862Z,8.00
2023-04-17T23:33:47.924Z,8.20
2023-04-17T23:36:14.752Z,7.40
2023-04-17T23:38:41.559Z,8.70
2023-04-17T23:41:08.210Z,7.57
2023-04-17T23:43:34.860Z,9.27
2023-04-17T23:46:01.612Z,8.63
2023-04-17T23:48:28.300Z,7.00
2023-04-17T23:50:56.361Z,9.10
2023-04-17T23:53:23.066Z,9.10
2023-04-17T23:55:49.699Z,9.60
2023-04-17T23:58:16.401Z,9.00
